createdAt,value
2022-12-01T00:01:12.960Z,6.30
2022-12-01T00:03:39.760Z,6.40
2022-12-01T00:06:10.638Z,6.40
2022-12-01T00:08:38.199Z,6.30
2022-12-01T00:11:10.589Z,6.30
2022-12-01T00:13:37.744Z,6.30
2022-12-01T00:16:12.159Z,6.30
2022-12-01T00:18:38.972Z,6.30
2022-12-01T00:21:06.218Z,6.30
2022-12-01T00:23:32.893Z,6.30
2022-12-01T00:26:06.062Z,6.20
2022-12-01T00:28:32.701Z,6.30
2022-12-01T00:31:00.264Z,6.30
2022-12-01T00:33:27.056Z,6.30
2022-12-01T00:36:00.994Z,6.30
2022-12-01T00:38:28.292Z,6.30
2022-12-01T00:40:54.925Z,6.30
2022-12-01T00:43:21.610Z,6.30
2022-12-01T00:45:48.244Z,6.20
2022-12-01T00:48:15.010Z,6.20
2022-12-01T00:50:42.109Z,6.20
2022-12-01T00:53:09.333Z,6.20
2022-12-01T00:55:36.209Z,6.20
2022-12-01T00:58:03.033Z,6.20
2022-12-01T01:00:31.137Z,6.20
2022-12-01T01:02:57.660Z,6.20
2022-12-01T01:05:24.420Z,6.20
2022-12-01T01:07:51.123Z,6.20
2022-12-01T01:10:17.955Z,6.20
2022-12-01T01:12:44.714Z,6.20
2022-12-01T01:15:11.380Z,6.10
2022-12-01T01:17:38.124Z,6.10
2022-12-01T01:20:06.169Z,6.10
2022-12-01T01:22:34.360Z,6.10
2022-12-01T01:25:01.137Z,6.10
2022-12-01T01:27:28.039Z,6.10
2022-12-01T01:29:54.571Z,6.10
2022-12-01T01:32:21.333Z,6.20
2022-12-01T01:34:48.071Z,6.20
2022-12-01T01:37:14.806Z,6.20
2022-12-01T01:39:41.532Z,6.20
2022-12-01T01:42:14.229Z,6.20
2022-12-01T01:44:51.080Z,6.20
2022-12-01T01:47:30.755Z,6.20
2022-12-01T01:50:06.006Z,6.20
2022-12-01T01:52:35.828Z,6.20
2022-12-01T01:55:03.045Z,6.20
2022-12-01T01:57:33.095Z,6.20
2022-12-01T02:00:07.881Z,6.20
2022-12-01T02:02:45.626Z,6.20
2022-12-01T02:05:20.744Z,6.20
2022-12-01T02:07:48.624Z,6.20
2022-12-01T02:10:22.702Z,6.20
2022-12-01T02:12:56.040Z,6.10
2022-12-01T02:15:36.862Z,6.10
2022-12-01T02:18:09.597Z,6.10
2022-12-01T02:21:10.559Z,6.10
2022-12-01T02:23:55.943Z,6.10
2022-12-01T02:27:01.298Z,6.10
2022-12-01T02:29:52.738Z,6.10
2022-12-01T02:32:29.059Z,6.10
2022-12-01T02:35:13.593Z,6.00
2022-12-01T02:37:56.153Z,6.10
2022-12-01T02:40:31.535Z,6.10
2022-12-01T02:43:14.282Z,6.10
2022-12-01T02:46:08.457Z,6.10
2022-12-01T02:48:38.483Z,6.10
2022-12-01T02:51:13.290Z,6.00
2022-12-01T02:53:40.027Z,6.10
2022-12-01T02:56:11.076Z,6.00
2022-12-01T02:58:38.026Z,6.10
2022-12-01T03:01:19.990Z,6.10
2022-12-01T03:04:10.366Z,6.10
2022-12-01T03:07:12.539Z,6.10
2022-12-01T03:10:01.101Z,6.10
2022-12-01T03:12:57.919Z,6.10
2022-12-01T03:15:53.886Z,6.10
2022-12-01T03:18:35.271Z,6.10
2022-12-01T03:21:09.371Z,6.00
2022-12-01T03:23:42.811Z,6.10
2022-12-01T03:26:16.170Z,6.10
2022-12-01T03:28:56.766Z,6.00
2022-12-01T03:31:30.814Z,6.00
2022-12-01T03:34:16.068Z,6.00
2022-12-01T03:36:47.984Z,6.00
2022-12-01T03:39:21.507Z,6.00
2022-12-01T03:41:55.505Z,6.00
2022-12-01T03:44:27.462Z,6.00
2022-12-01T03:46:59.399Z,6.00
2022-12-01T03:49:26.894Z,6.00
2022-12-01T03:52:15.120Z,6.00
2022-12-01T03:55:01.328Z,6.00
2022-12-01T03:57:40.792Z,6.00
2022-12-01T04:00:08.679Z,6.00
2022-12-01T04:02:37.248Z,6.00
2022-12-01T04:05:06.209Z,6.00
2022-12-01T04:07:32.926Z,6.00
2022-12-01T04:09:59.581Z,5.90
2022-12-01T04:12:34.992Z,6.00
2022-12-01T04:15:12.344Z,6.00
2022-12-01T04:17:39.913Z,6.00
2022-12-01T04:20:07.755Z,5.90
2022-12-01T04:22:34.300Z,6.00
2022-12-01T04:25:00.994Z,5.90
2022-12-01T04:27:27.624Z,5.90
2022-12-01T04:29:54.396Z,5.90
2022-12-01T04:32:22.471Z,6.00
2022-12-01T04:34:48.984Z,6.00
2022-12-01T04:37:16.755Z,5.90
2022-12-01T04:39:43.798Z,6.00
2022-12-01T04:42:10.975Z,6.00
2022-12-01T04:44:38.848Z,6.00
2022-12-01T04:47:06.275Z,6.00
2022-12-01T04:49:33.706Z,6.00
2022-12-01T04:52:00.303Z,6.00
2022-12-01T04:54:27.033Z,6.00
2022-12-01T04:56:53.611Z,6.00
2022-12-01T04:59:20.461Z,5.90
2022-12-01T05:01:48.326Z,5.90
2022-12-01T05:04:15.658Z,5.90
2022-12-01T05:06:43.077Z,5.90
2022-12-01T05:09:17.468Z,5.90
2022-12-01T05:11:44.881Z,5.80
2022-12-01T05:14:11.534Z,5.80
2022-12-01T05:16:38.154Z,5.80
2022-12-01T05:19:24.882Z,5.80
2022-12-01T05:21:53.079Z,5.80
2022-12-01T05:24:20.804Z,5.90
2022-12-01T05:26:47.906Z,5.90
2022-12-01T05:29:15.027Z,5.90
2022-12-01T05:31:41.795Z,5.90
2022-12-01T05:34:08.751Z,5.90
2022-12-01T05:36:35.497Z,5.90
2022-12-01T05:39:02.172Z,5.90
2022-12-01T05:41:28.863Z,5.90
2022-12-01T05:43:55.427Z,5.90
2022-12-01T05:46:23.348Z,5.80
2022-12-01T05:48:50.135Z,5.80
2022-12-01T05:51:18.569Z,5.80
2022-12-01T05:53:46.891Z,5.70
2022-12-01T05:56:13.494Z,5.70
2022-12-01T05:58:41.393Z,5.70
2022-12-01T06:01:08.265Z,5.70
2022-12-01T06:03:35.177Z,5.80
2022-12-01T06:06:02.018Z,5.80
2022-12-01T06:08:28.869Z,5.70
2022-12-01T06:10:55.655Z,5.70
2022-12-01T06:13:22.400Z,5.70
2022-12-01T06:15:59.561Z,5.70
2022-12-01T06:18:27.529Z,5.70
2022-12-01T06:20:54.304Z,5.70
2022-12-01T06:23:21.150Z,5.70
2022-12-01T06:25:48.318Z,5.70
2022-12-01T06:28:15.150Z,5.80
2022-12-01T06:30:42.068Z,5.80
2022-12-01T06:33:08.952Z,5.70
2022-12-01T06:35:36.631Z,5.70
2022-12-01T06:38:03.647Z,5.60
2022-12-01T06:40:30.810Z,5.70
2022-12-01T06:43:02.707Z,5.70
2022-12-01T06:45:30.822Z,5.70
2022-12-01T06:47:57.848Z,5.70
2022-12-01T06:50:24.983Z,5.70
2022-12-01T06:52:52.841Z,5.70
2022-12-01T06:55:19.839Z,5.60
2022-12-01T06:57:46.602Z,5.70
2022-12-01T07:00:14.467Z,5.70
2022-12-01T07:02:41.349Z,5.70
2022-12-01T07:05:08.327Z,5.70
2022-12-01T07:07:39.241Z,5.70
2022-12-01T07:10:06.898Z,5.70
2022-12-01T07:12:33.786Z,5.70
2022-12-01T07:15:01.736Z,5.70
2022-12-01T07:17:30.685Z,5.70
2022-12-01T07:19:57.765Z,5.70
2022-12-01T07:22:29.518Z,5.70
2022-12-01T07:24:57.848Z,5.70
2022-12-01T07:27:24.440Z,5.70
2022-12-01T07:29:51.290Z,5.60
2022-12-01T07:32:18.414Z,5.60
2022-12-01T07:34:45.165Z,5.70
2022-12-01T07:37:11.687Z,5.70
2022-12-01T07:39:38.503Z,5.60
2022-12-01T07:42:05.244Z,5.70
2022-12-01T07:44:31.856Z,5.60
2022-12-01T07:46:58.576Z,5.60
2022-12-01T07:49:25.373Z,5.60
2022-12-01T07:51:52.042Z,5.60
2022-12-01T07:54:20.945Z,5.60
2022-12-01T07:56:47.518Z,5.60
2022-12-01T07:59:14.308Z,5.50
2022-12-01T08:01:44.954Z,5.50
2022-12-01T08:04:12.091Z,5.60
2022-12-01T08:06:38.780Z,5.50
2022-12-01T08:09:05.550Z,5.40
2022-12-01T08:11:32.295Z,5.30
2022-12-01T08:13:58.917Z,5.30
2022-12-01T08:16:25.993Z,5.30
2022-12-01T08:18:53.205Z,5.40
2022-12-01T08:21:21.759Z,5.40
2022-12-01T08:23:51.950Z,5.50
2022-12-01T08:26:19.955Z,5.50
2022-12-01T08:28:47.490Z,5.60
2022-12-01T08:31:17.839Z,5.60
2022-12-01T08:33:45.785Z,5.60
2022-12-01T08:36:12.583Z,5.60
2022-12-01T08:38:39.385Z,5.60
2022-12-01T08:41:08.643Z,5.60
2022-12-01T08:46:33.293Z,5.60
2022-12-01T08:49:00.919Z,5.60
2022-12-01T08:51:28.178Z,5.60
2022-12-01T08:53:57.035Z,5.60
2022-12-01T08:56:33.358Z,5.50
2022-12-01T08:59:00.527Z,5.50
2022-12-01T09:01:28.197Z,5.60
2022-12-01T09:04:08.372Z,5.60
2022-12-01T09:06:40.835Z,5.60
2022-12-01T09:09:10.538Z,5.60
2022-12-01T09:11:37.185Z,5.50
2022-12-01T09:14:04.090Z,5.50
2022-12-01T09:16:30.747Z,5.50
2022-12-01T09:18:57.632Z,5.60
2022-12-01T09:21:28.915Z,5.60
2022-12-01T09:23:55.528Z,5.60
2022-12-01T09:26:23.363Z,5.60
2022-12-01T09:28:58.008Z,5.70
2022-12-01T09:31:24.976Z,5.70
2022-12-01T09:34:02.947Z,5.70
2022-12-01T09:36:31.294Z,5.70
2022-12-01T09:38:58.747Z,5.80
2022-12-01T09:41:31.998Z,5.80
2022-12-01T09:44:14.183Z,5.90
2022-12-01T09:46:46.722Z,5.90
2022-12-01T09:49:23.056Z,5.90
2022-12-01T09:51:54.481Z,5.90
2022-12-01T09:54:21.575Z,5.90
2022-12-01T09:56:53.059Z,5.90
2022-12-01T09:59:31.038Z,6.00
2022-12-01T10:02:09.380Z,5.90
2022-12-01T10:04:46.268Z,5.90
2022-12-01T10:07:27.097Z,5.90
2022-12-01T10:10:00.135Z,5.80
2022-12-01T10:12:32.232Z,5.80
2022-12-01T10:15:06.061Z,5.80
2022-12-01T10:17:53.196Z,5.80
2022-12-01T10:20:39.346Z,5.70
2022-12-01T10:23:21.158Z,5.70
2022-12-01T10:25:57.276Z,5.70
2022-12-01T10:28:24.020Z,5.70
2022-12-01T10:30:53.213Z,5.70
2022-12-01T10:33:24.410Z,5.60
2022-12-01T10:35:51.719Z,5.70
2022-12-01T10:38:31.675Z,5.70
2022-12-01T10:41:01.111Z,5.70
2022-12-01T10:43:44.905Z,5.60
2022-12-01T10:46:29.088Z,5.60
2022-12-01T10:48:58.588Z,5.70
2022-12-01T10:51:27.226Z,5.70
2022-12-01T10:54:07.990Z,5.70
2022-12-01T10:56:39.493Z,5.70
2022-12-01T10:59:19.506Z,5.70
2022-12-01T11:01:48.198Z,5.70
2022-12-01T11:04:20.882Z,5.70
2022-12-01T11:06:51.439Z,5.60
2022-12-01T11:09:25.909Z,5.60
2022-12-01T11:11:58.561Z,5.70
2022-12-01T11:14:50.774Z,5.70
2022-12-01T11:17:30.826Z,5.60
2022-12-01T11:19:58.032Z,5.60
2022-12-01T11:22:30.867Z,5.60
2022-12-01T11:25:00.736Z,5.50
2022-12-01T11:27:32.390Z,5.50
2022-12-01T11:30:06.530Z,5.50
2022-12-01T11:32:44.522Z,5.40
2022-12-01T11:35:11.215Z,5.30
2022-12-01T11:40:37.370Z,5.30
2022-12-01T11:43:06.860Z,5.30
2022-12-01T11:45:40.746Z,5.30
2022-12-01T11:48:15.408Z,5.30
2022-12-01T11:50:44.073Z,5.40
2022-12-01T11:53:36.734Z,5.40
2022-12-01T11:56:24.718Z,5.30
2022-12-01T11:58:57.987Z,5.30
2022-12-01T12:01:50.206Z,5.30
2022-12-01T12:04:51.856Z,5.30
2022-12-01T12:07:26.833Z,5.30
2022-12-01T12:10:14.012Z,5.30
2022-12-01T12:12:46.690Z,5.30
2022-12-01T12:18:32.043Z,5.20
2022-12-01T12:21:11.008Z,5.20
2022-12-01T12:24:15.205Z,5.20
2022-12-01T12:26:50.818Z,5.20
2022-12-01T12:29:38.988Z,5.20
2022-12-01T12:32:20.658Z,5.20
2022-12-01T12:35:03.058Z,5.10
2022-12-01T12:37:54.038Z,5.20
2022-12-01T12:40:32.805Z,5.20
2022-12-01T12:43:17.988Z,5.20
2022-12-01T12:46:09.993Z,5.20
2022-12-01T12:49:18.630Z,5.20
2022-12-01T12:52:02.594Z,5.20
2022-12-01T12:55:00.116Z,5.20
2022-12-01T12:57:33.141Z,5.30
2022-12-01T13:00:18.508Z,5.30
2022-12-01T13:03:07.055Z,5.30
2022-12-01T13:05:49.241Z,5.30
2022-12-01T13:08:24.243Z,5.30
2022-12-01T13:10:59.345Z,5.30
2022-12-01T13:13:57.191Z,5.30
2022-12-01T13:16:36.402Z,5.20
2022-12-01T13:19:21.076Z,5.30
2022-12-01T13:21:50.300Z,5.30
2022-12-01T13:24:23.976Z,5.30
2022-12-01T13:27:05.103Z,5.30
2022-12-01T13:29:43.886Z,5.30
2022-12-01T13:32:40.316Z,5.30
2022-12-01T13:35:33.460Z,5.20
2022-12-01T13:38:35.278Z,5.20
2022-12-01T13:41:19.849Z,5.20
2022-12-01T13:44:09.024Z,5.20
2022-12-01T13:46:44.871Z,5.20
2022-12-01T13:49:33.547Z,5.10
2022-12-01T13:52:21.500Z,5.10
2022-12-01T13:55:00.666Z,5.00
2022-12-01T13:57:30.745Z,5.00
2022-12-01T14:00:00.503Z,5.00
2022-12-01T14:02:32.551Z,4.90
2022-12-01T14:05:24.305Z,4.90
2022-12-01T14:07:53.695Z,4.90
2022-12-01T14:10:27.076Z,4.70
2022-12-01T14:12:57.579Z,4.70
2022-12-01T14:15:35.526Z,4.80
2022-12-01T14:18:43.397Z,4.80
2022-12-01T14:21:12.556Z,4.80
2022-12-01T14:23:59.527Z,4.80
2022-12-01T14:26:29.254Z,4.80
2022-12-01T14:28:55.949Z,4.90
2022-12-01T14:31:24.876Z,4.90
2022-12-01T14:34:01.330Z,4.90
2022-12-01T14:36:46.060Z,4.80
2022-12-01T14:39:15.150Z,4.80
2022-12-01T14:41:51.586Z,4.80
2022-12-01T14:44:33.329Z,4.90
2022-12-01T14:47:02.234Z,4.90
2022-12-01T14:49:53.628Z,4.90
2022-12-01T14:52:26.121Z,4.90
2022-12-01T14:54:58.702Z,4.90
2022-12-01T14:57:31.887Z,4.90
2022-12-01T15:00:16.476Z,4.80
2022-12-01T15:02:52.223Z,4.80
2022-12-01T15:05:21.889Z,4.80
2022-12-01T15:07:58.811Z,4.80
2022-12-01T15:10:37.205Z,4.80
2022-12-01T15:13:24.819Z,4.80
2022-12-01T15:15:54.734Z,4.70
2022-12-01T15:18:31.311Z,4.70
2022-12-01T15:21:03.762Z,4.70
2022-12-01T15:23:30.345Z,4.70
2022-12-01T15:25:58.440Z,4.80
2022-12-01T15:28:36.406Z,4.80
2022-12-01T15:31:10.770Z,4.80
2022-12-01T15:33:41.284Z,4.80
2022-12-01T15:36:08.687Z,4.80
2022-12-01T15:38:37.749Z,4.70
2022-12-01T15:41:28.372Z,4.70
2022-12-01T15:43:58.445Z,4.70
2022-12-01T15:46:34.469Z,4.70
2022-12-01T15:49:21.160Z,4.70
2022-12-01T15:51:49.902Z,4.70
2022-12-01T15:54:27.570Z,4.70
2022-12-01T15:56:56.457Z,4.70
2022-12-01T15:59:38.972Z,4.70
2022-12-01T16:02:20.745Z,4.60
2022-12-01T16:04:49.213Z,4.60
2022-12-01T16:07:16.127Z,4.60
2022-12-01T16:09:55.945Z,4.60
2022-12-01T16:12:25.154Z,4.60
2022-12-01T16:15:00.872Z,4.60
2022-12-01T16:17:52.713Z,4.60
2022-12-01T16:20:22.781Z,4.60
2022-12-01T16:22:57.276Z,4.60
2022-12-01T16:25:39.428Z,4.60
2022-12-01T16:28:18.149Z,4.60
2022-12-01T16:30:44.875Z,4.60
2022-12-01T16:33:17.649Z,4.70
2022-12-01T16:35:44.575Z,4.70
2022-12-01T16:38:20.431Z,4.70
2022-12-01T16:40:55.712Z,4.70
2022-12-01T16:43:24.550Z,4.60
2022-12-01T16:46:04.115Z,4.60
2022-12-01T16:48:31.688Z,4.60
2022-12-01T16:51:05.221Z,4.60
2022-12-01T16:53:32.128Z,4.70
2022-12-01T16:56:01.558Z,4.70
2022-12-01T16:58:28.388Z,4.70
2022-12-01T17:00:55.448Z,4.70
2022-12-01T17:03:25.156Z,4.70
2022-12-01T17:05:53.991Z,4.70
2022-12-01T17:08:21.059Z,4.70
2022-12-01T17:10:51.077Z,4.70
2022-12-01T17:13:19.280Z,4.70
2022-12-01T17:15:48.005Z,4.60
2022-12-01T17:18:16.989Z,4.60
2022-12-01T17:20:44.458Z,4.60
2022-12-01T17:23:11.515Z,4.60
2022-12-01T17:25:41.859Z,4.60
2022-12-01T17:28:08.782Z,4.70
2022-12-01T17:30:37.215Z,4.60
2022-12-01T17:33:04.198Z,4.60
2022-12-01T17:35:30.858Z,4.60
2022-12-01T17:37:57.670Z,4.50
2022-12-01T17:40:24.304Z,4.60
2022-12-01T17:42:51.230Z,4.60
2022-12-01T17:45:18.909Z,4.60
2022-12-01T17:47:45.881Z,4.60
2022-12-01T17:50:12.611Z,4.60
2022-12-01T17:52:39.473Z,4.60
2022-12-01T17:55:06.936Z,4.60
2022-12-01T17:57:34.264Z,4.60
2022-12-01T18:00:02.047Z,4.60
2022-12-01T18:02:28.735Z,4.50
2022-12-01T18:04:55.453Z,4.50
2022-12-01T18:07:22.142Z,4.40
2022-12-01T18:09:49.078Z,4.40
2022-12-01T18:12:15.712Z,4.40
2022-12-01T18:14:42.406Z,4.40
2022-12-01T18:17:09.223Z,4.40
2022-12-01T18:19:36.222Z,4.40
2022-12-01T18:22:03.013Z,4.40
2022-12-01T18:24:29.678Z,4.40
2022-12-01T18:26:56.733Z,4.50
2022-12-01T18:29:26.408Z,4.50
2022-12-01T18:31:57.733Z,4.50
2022-12-01T18:34:29.545Z,4.50
2022-12-01T18:36:56.570Z,4.50
2022-12-01T18:39:23.795Z,4.50
2022-12-01T18:41:50.769Z,4.50
2022-12-01T18:44:17.514Z,4.50
2022-12-01T18:46:44.557Z,4.50
2022-12-01T18:49:12.077Z,4.60
2022-12-01T18:51:39.066Z,4.60
2022-12-01T18:54:07.826Z,4.60
2022-12-01T18:56:34.774Z,4.70
2022-12-01T18:59:04.820Z,4.70
2022-12-01T19:01:37.290Z,4.60
2022-12-01T19:04:05.537Z,4.60
2022-12-01T19:06:34.229Z,4.60
2022-12-01T19:09:04.280Z,4.60
2022-12-01T19:11:31.700Z,4.60
2022-12-01T19:13:58.443Z,4.60
2022-12-01T19:16:25.641Z,4.60
2022-12-01T19:18:52.240Z,4.60
2022-12-01T19:21:20.182Z,4.60
2022-12-01T19:23:48.461Z,4.60
2022-12-01T19:26:18.304Z,4.60
2022-12-01T19:28:45.896Z,4.50
2022-12-01T19:31:15.475Z,4.50
2022-12-01T19:33:42.778Z,4.50
2022-12-01T19:36:12.605Z,4.50
2022-12-01T19:38:39.801Z,4.50
2022-12-01T19:41:08.015Z,4.50
2022-12-01T19:43:35.941Z,4.50
2022-12-01T19:46:11.940Z,4.50
2022-12-01T19:48:39.082Z,4.50
2022-12-01T19:51:06.053Z,4.50
2022-12-01T19:53:34.073Z,4.50
2022-12-01T19:56:04.916Z,4.60
2022-12-01T19:58:35.163Z,4.60
2022-12-01T20:01:13.708Z,4.60
2022-12-01T20:03:41.183Z,4.50
2022-12-01T20:06:14.583Z,4.50
2022-12-01T20:08:41.374Z,4.50
2022-12-01T20:11:08.575Z,4.50
2022-12-01T20:13:38.242Z,4.50
2022-12-01T20:16:11.398Z,4.50
2022-12-01T20:18:38.600Z,4.50
2022-12-01T20:21:19.000Z,4.50
2022-12-01T20:23:47.796Z,4.50
2022-12-01T20:26:16.060Z,4.50
2022-12-01T20:28:44.206Z,4.50
2022-12-01T20:31:17.299Z,4.50
2022-12-01T20:33:44.236Z,4.50
2022-12-01T20:36:11.341Z,4.40
2022-12-01T20:38:38.550Z,4.40
2022-12-01T20:41:06.720Z,4.30
2022-12-01T20:43:34.160Z,4.30
2022-12-01T20:46:02.641Z,4.20
2022-12-01T20:48:30.086Z,4.20
2022-12-01T20:50:59.109Z,4.10
2022-12-01T20:53:25.767Z,4.10
2022-12-01T20:55:52.583Z,4.10
2022-12-01T20:58:19.353Z,4.00
2022-12-01T21:00:46.185Z,4.10
2022-12-01T21:03:14.039Z,4.10
2022-12-01T21:05:42.209Z,4.10
2022-12-01T21:08:12.105Z,4.10
2022-12-01T21:10:44.789Z,4.20
2022-12-01T21:13:44.165Z,4.10
2022-12-01T21:16:16.683Z,4.10
2022-12-01T21:19:06.281Z,4.10
2022-12-01T21:21:37.960Z,4.10
2022-12-01T21:24:07.678Z,4.20
2022-12-01T21:26:40.772Z,4.20
2022-12-01T21:29:25.053Z,4.10
2022-12-01T21:31:54.439Z,4.10
2022-12-01T21:34:23.488Z,4.20
2022-12-01T21:36:52.195Z,4.10
2022-12-01T21:39:22.156Z,4.10
2022-12-01T21:41:50.457Z,4.10
2022-12-01T21:44:22.619Z,4.10
2022-12-01T21:46:55.853Z,4.10
2022-12-01T21:49:41.044Z,4.10
2022-12-01T21:52:16.723Z,4.10
2022-12-01T21:54:43.356Z,4.00
2022-12-01T21:57:43.944Z,4.00
2022-12-01T22:00:29.077Z,4.00
2022-12-01T22:03:07.908Z,4.10
2022-12-01T22:05:43.973Z,4.10
2022-12-01T22:08:26.456Z,4.00
2022-12-01T22:11:05.258Z,4.00
2022-12-01T22:13:46.709Z,4.00
2022-12-01T22:16:20.882Z,4.00
2022-12-01T22:18:53.765Z,4.10
2022-12-01T22:21:23.502Z,4.10
2022-12-01T22:24:00.736Z,4.10
2022-12-01T22:26:27.414Z,4.20
2022-12-01T22:28:58.022Z,4.10
2022-12-01T22:31:25.285Z,4.10
2022-12-01T22:34:03.094Z,4.00
2022-12-01T22:36:31.934Z,4.00
2022-12-01T22:38:58.867Z,4.00
2022-12-01T22:41:28.621Z,4.00
2022-12-01T22:43:57.012Z,3.90
2022-12-01T22:46:26.315Z,3.90
2022-12-01T22:49:02.820Z,3.90
2022-12-01T22:51:30.846Z,4.00
2022-12-01T22:54:07.832Z,4.00
2022-12-01T22:56:41.151Z,4.00
2022-12-01T22:59:18.645Z,3.90
2022-12-01T23:01:56.611Z,3.90
2022-12-01T23:04:26.612Z,3.90
2022-12-01T23:06:57.287Z,3.90
2022-12-01T23:09:39.695Z,3.90
2022-12-01T23:12:12.566Z,3.90
2022-12-01T23:14:46.947Z,4.00
2022-12-01T23:17:22.915Z,3.80
2022-12-01T23:19:52.216Z,3.70
2022-12-01T23:22:19.249Z,3.70
2022-12-01T23:24:46.152Z,3.70
2022-12-01T23:27:13.942Z,3.70
2022-12-01T23:29:40.566Z,3.70
2022-12-01T23:32:07.207Z,3.70
2022-12-01T23:34:34.132Z,3.70
2022-12-01T23:37:01.394Z,3.60
2022-12-01T23:39:32.677Z,3.60
2022-12-01T23:41:59.447Z,3.50
2022-12-01T23:44:34.623Z,3.50
2022-12-01T23:47:01.620Z,3.50
2022-12-01T23:49:32.055Z,3.50
2022-12-01T23:52:02.126Z,3.50
2022-12-01T23:54:34.787Z,3.50
2022-12-01T23:57:10.830Z,3.50
2022-12-01T23:59:38.136Z,3.60
